createdAt,value
2023-03-26T00:00:15.118Z,2.92
2023-03-26T00:02:49.292Z,3.28
2023-03-26T00:05:16.587Z,2.90
2023-03-26T00:07:44.104Z,2.75
2023-03-26T00:12:45.355Z,3.13
2023-03-26T00:15:19.148Z,3.20
2023-03-26T00:17:46.727Z,2.92
2023-03-26T00:20:27.046Z,3.30
2023-03-26T00:22:55.303Z,3.03
2023-03-26T00:25:37.037Z,3.15
2023-03-26T00:28:11.443Z,3.08
2023-03-26T00:30:48.122Z,3.58
2023-03-26T00:33:17.416Z,3.50
2023-03-26T00:35:47.280Z,3.30
2023-03-26T00:38:24.064Z,3.20
2023-03-26T00:40:51.767Z,3.75
2023-03-26T00:43:26.050Z,3.53
2023-03-26T00:45:57.155Z,2.90
2023-03-26T00:48:42.220Z,3.05
2023-03-26T00:51:12.322Z,3.70
2023-03-26T00:56:15.697Z,2.80
2023-03-26T01:01:22.286Z,3.20
2023-03-26T01:04:05.306Z,3.10
2023-03-26T01:06:42.517Z,3.47
2023-03-26T01:09:16.955Z,3.25
2023-03-26T01:11:51.209Z,3.17
2023-03-26T01:14:23.719Z,3.25
2023-03-26T01:16:59.239Z,3.55
2023-03-26T01:19:29.726Z,3.38
2023-03-26T01:21:57.125Z,3.88
2023-03-26T01:24:31.116Z,3.47
2023-03-26T01:27:24.435Z,3.30
2023-03-26T01:30:03.120Z,3.55
2023-03-26T01:32:56.105Z,3.90
2023-03-26T01:35:34.271Z,3.78
2023-03-26T01:40:49.160Z,3.60
2023-03-26T01:43:35.289Z,3.07
2023-03-26T01:46:11.177Z,3.60
2023-03-26T01:48:43.156Z,3.95
2023-03-26T01:51:17.114Z,3.95
2023-03-26T01:53:45.515Z,3.78
2023-03-26T01:56:20.155Z,3.97
2023-03-26T01:58:47.282Z,3.58
2023-03-26T02:01:24.219Z,3.90
2023-03-26T02:03:54.664Z,3.85
2023-03-26T02:06:37.102Z,3.08
2023-03-26T02:09:07.987Z,3.20
2023-03-26T02:11:43.186Z,3.83
2023-03-26T02:14:10.891Z,4.10
2023-03-26T02:16:45.206Z,3.90
2023-03-26T02:19:15.603Z,3.20
2023-03-26T02:21:43.172Z,3.70
2023-03-26T02:24:17.122Z,3.35
2023-03-26T02:26:44.306Z,3.40
2023-03-26T02:29:19.246Z,3.20
2023-03-26T02:31:49.656Z,3.47
2023-03-26T02:34:17.551Z,4.22
2023-03-26T02:36:51.175Z,3.88
2023-03-26T02:39:18.337Z,3.25
2023-03-26T02:41:52.143Z,3.75
2023-03-26T02:44:19.243Z,3.50
2023-03-26T02:46:46.428Z,2.88
2023-03-26T02:49:20.153Z,3.10
2023-03-26T02:51:47.411Z,2.90
2023-03-26T02:54:23.351Z,3.47
2023-03-26T02:56:50.737Z,2.83
2023-03-26T02:59:17.949Z,3.47
2023-03-26T03:01:52.150Z,3.25
2023-03-26T03:04:19.672Z,3.58
2023-03-26T03:09:20.486Z,3.17
2023-03-26T03:11:47.629Z,2.90
2023-03-26T03:14:21.141Z,3.10
2023-03-26T03:16:48.384Z,2.58
2023-03-26T03:19:22.269Z,2.75
2023-03-26T03:21:49.469Z,2.40
2023-03-26T03:24:36.266Z,2.50
2023-03-26T03:27:03.433Z,2.28
2023-03-26T03:29:30.657Z,2.13
2023-03-26T03:32:06.156Z,2.50
2023-03-26T03:34:33.388Z,2.55
2023-03-26T03:37:07.261Z,3.15
2023-03-26T03:39:34.415Z,2.38
2023-03-26T03:42:01.506Z,2.30
2023-03-26T03:44:35.129Z,2.67
2023-03-26T03:47:02.415Z,2.40
2023-03-26T03:49:36.096Z,2.33
2023-03-26T03:52:03.364Z,2.30
2023-03-26T03:54:30.464Z,2.05
2023-03-26T03:57:04.098Z,2.08
2023-03-26T03:59:31.417Z,2.40
2023-03-26T04:02:05.226Z,2.20
2023-03-26T04:04:32.919Z,2.33
2023-03-26T04:07:00.231Z,1.90
2023-03-26T04:09:34.253Z,2.35
2023-03-26T04:12:01.521Z,2.10
2023-03-26T04:14:35.264Z,2.20
2023-03-26T04:17:02.426Z,2.22
2023-03-26T04:19:29.530Z,2.22
2023-03-26T04:22:09.152Z,2.03
2023-03-26T04:24:57.080Z,2.10
2023-03-26T04:27:34.148Z,2.20
2023-03-26T04:30:02.374Z,2.22
2023-03-26T04:32:33.998Z,2.05
2023-03-26T04:35:10.163Z,2.10
2023-03-26T04:37:41.616Z,1.95
2023-03-26T04:40:17.344Z,1.92
2023-03-26T04:42:46.221Z,1.80
2023-03-26T04:45:24.194Z,2.13
2023-03-26T04:47:51.472Z,2.00
2023-03-26T04:50:18.622Z,2.20
2023-03-26T04:52:52.216Z,2.10
2023-03-26T04:55:25.244Z,1.83
2023-03-26T04:58:03.206Z,1.77
2023-03-26T05:00:30.520Z,2.28
2023-03-26T05:03:06.224Z,2.22
2023-03-26T05:05:33.421Z,2.10
2023-03-26T05:08:07.057Z,1.98
2023-03-26T05:10:41.196Z,1.92
2023-03-26T05:13:15.212Z,2.10
2023-03-26T05:15:42.556Z,2.20
2023-03-26T05:18:09.986Z,2.30
2023-03-26T05:23:12.376Z,2.10
2023-03-26T05:25:54.282Z,2.03
2023-03-26T05:28:24.345Z,2.20
2023-03-26T05:31:01.282Z,2.30
2023-03-26T05:33:28.847Z,2.20
2023-03-26T05:36:08.277Z,1.92
2023-03-26T05:38:35.900Z,2.13
2023-03-26T05:41:18.124Z,2.42
2023-03-26T05:43:47.202Z,2.30
2023-03-26T05:46:14.993Z,2.20
2023-03-26T05:48:49.433Z,2.33
2023-03-26T05:51:16.699Z,2.38
2023-03-26T05:53:44.163Z,2.30
2023-03-26T05:58:45.779Z,2.05
2023-03-26T06:03:51.271Z,2.20
2023-03-26T06:06:27.239Z,2.75
2023-03-26T06:09:01.382Z,2.22
2023-03-26T06:11:38.073Z,2.60
2023-03-26T06:14:12.129Z,2.40
2023-03-26T06:16:46.113Z,2.40
2023-03-26T06:19:13.366Z,2.55
2023-03-26T06:21:40.778Z,2.53
2023-03-26T06:26:48.231Z,2.08
2023-03-26T06:29:22.281Z,2.22
2023-03-26T06:31:49.444Z,2.40
2023-03-26T06:34:16.538Z,2.38
2023-03-26T06:36:50.273Z,2.50
2023-03-26T06:39:17.515Z,2.10
2023-03-26T06:41:51.123Z,2.13
2023-03-26T06:44:18.322Z,2.42
2023-03-26T06:46:45.422Z,2.28
2023-03-26T06:49:19.432Z,2.70
2023-03-26T06:51:47.422Z,2.20
2023-03-26T06:54:14.865Z,2.40
2023-03-26T06:59:15.372Z,2.35
2023-03-26T07:01:49.234Z,2.20
2023-03-26T07:04:16.491Z,2.60
2023-03-26T07:06:43.687Z,2.55
2023-03-26T07:09:17.192Z,2.63
2023-03-26T07:11:44.441Z,2.53
2023-03-26T07:14:18.212Z,2.65
2023-03-26T07:16:45.482Z,2.75
2023-03-26T07:19:19.293Z,2.60
2023-03-26T07:21:47.012Z,2.30
2023-03-26T07:24:28.235Z,2.83
2023-03-26T07:27:11.143Z,2.67
2023-03-26T07:29:52.995Z,2.30
2023-03-26T07:32:36.199Z,2.47
2023-03-26T07:35:12.871Z,2.72
2023-03-26T07:37:51.217Z,2.88
2023-03-26T07:40:28.754Z,2.35
2023-03-26T07:43:14.083Z,2.47
2023-03-26T07:45:49.282Z,2.60
2023-03-26T07:48:18.202Z,2.95
2023-03-26T07:50:52.278Z,2.30
2023-03-26T07:53:20.035Z,2.55
2023-03-26T07:56:00.539Z,2.50
2023-03-26T07:58:30.915Z,2.53
2023-03-26T08:01:11.313Z,2.78
2023-03-26T08:04:23.175Z,2.60
2023-03-26T08:07:05.308Z,2.40
2023-03-26T08:09:39.124Z,2.60
2023-03-26T08:12:31.287Z,2.15
2023-03-26T08:15:11.115Z,2.10
2023-03-26T08:17:52.225Z,2.40
2023-03-26T08:20:38.302Z,2.20
2023-03-26T08:23:21.269Z,2.30
2023-03-26T08:26:02.322Z,2.10
2023-03-26T08:28:46.298Z,2.03
2023-03-26T08:31:15.333Z,2.17
2023-03-26T08:33:43.544Z,2.10
2023-03-26T08:36:17.158Z,2.08
2023-03-26T08:38:46.407Z,2.00
2023-03-26T08:41:25.178Z,2.10
2023-03-26T08:43:58.245Z,2.65
2023-03-26T08:46:32.296Z,1.80
2023-03-26T08:49:10.988Z,1.65
2023-03-26T08:52:03.866Z,2.05
2023-03-26T08:54:34.278Z,1.70
2023-03-26T08:57:01.391Z,1.90
2023-03-26T08:59:47.265Z,1.90
2023-03-26T09:02:17.518Z,1.73
2023-03-26T09:05:10.186Z,1.70
2023-03-26T09:07:43.200Z,1.90
2023-03-26T09:10:29.267Z,1.50
2023-03-26T09:12:59.620Z,1.90
2023-03-26T09:15:36.180Z,1.67
2023-03-26T09:18:15.746Z,1.60
2023-03-26T09:20:49.884Z,1.90
2023-03-26T09:23:17.956Z,1.50
2023-03-26T09:26:17.168Z,1.50
2023-03-26T09:28:44.423Z,1.80
2023-03-26T09:31:37.302Z,1.35
2023-03-26T09:34:07.758Z,1.40
2023-03-26T09:37:00.235Z,1.58
2023-03-26T09:39:56.604Z,1.15
2023-03-26T09:42:56.249Z,1.30
2023-03-26T09:45:23.471Z,1.95
2023-03-26T09:48:36.302Z,1.25
2023-03-26T09:51:18.573Z,1.33
2023-03-26T09:54:17.400Z,1.50
2023-03-26T09:56:53.407Z,1.30
2023-03-26T09:59:56.386Z,1.67
2023-03-26T10:02:45.309Z,1.40
2023-03-26T10:05:41.194Z,1.35
2023-03-26T10:08:08.901Z,1.20
2023-03-26T10:10:48.393Z,1.27
2023-03-26T10:13:35.777Z,1.45
2023-03-26T10:16:15.379Z,1.60
2023-03-26T10:18:46.215Z,1.52
2023-03-26T10:21:47.460Z,1.45
2023-03-26T10:24:24.234Z,1.70
2023-03-26T10:27:16.336Z,1.13
2023-03-26T10:30:00.843Z,1.55
2023-03-26T10:32:50.316Z,1.60
2023-03-26T10:35:36.002Z,1.30
2023-03-26T10:38:13.372Z,1.50
2023-03-26T10:40:46.746Z,1.33
2023-03-26T10:43:20.446Z,1.30
2023-03-26T10:46:12.175Z,1.45
2023-03-26T10:49:01.007Z,2.13
2023-03-26T10:51:38.116Z,1.63
2023-03-26T10:54:41.232Z,1.58
2023-03-26T10:57:27.152Z,1.88
2023-03-26T11:00:40.257Z,2.03
2023-03-26T11:03:10.158Z,2.00
2023-03-26T11:06:06.398Z,1.52
2023-03-26T11:08:46.117Z,1.50
2023-03-26T11:11:38.295Z,1.70
2023-03-26T11:14:15.094Z,1.70
2023-03-26T11:17:04.518Z,1.42
2023-03-26T11:19:38.013Z,1.27
2023-03-26T11:22:23.372Z,1.95
2023-03-26T11:25:29.145Z,1.80
2023-03-26T11:28:03.409Z,2.38
2023-03-26T11:30:37.264Z,5.72
2023-03-26T11:33:16.423Z,7.30
2023-03-26T11:35:46.509Z,5.65
2023-03-26T11:38:26.460Z,3.50
2023-03-26T11:40:55.868Z,1.88
2023-03-26T11:43:33.343Z,1.65
2023-03-26T11:46:07.175Z,1.95
2023-03-26T11:48:39.713Z,2.20
2023-03-26T11:51:15.136Z,1.30
2023-03-26T11:53:46.685Z,1.38
2023-03-26T11:56:30.144Z,1.52
2023-03-26T11:58:58.165Z,1.58
2023-03-26T12:01:37.196Z,1.70
2023-03-26T12:04:07.197Z,2.13
2023-03-26T12:06:41.218Z,1.30
2023-03-26T12:09:27.164Z,1.67
2023-03-26T12:12:03.159Z,2.20
2023-03-26T12:14:31.744Z,1.40
2023-03-26T12:17:10.152Z,1.63
2023-03-26T12:19:39.702Z,1.90
2023-03-26T12:22:07.557Z,1.70
2023-03-26T12:24:43.292Z,1.55
2023-03-26T12:27:22.764Z,2.65
2023-03-26T12:30:01.352Z,2.53
2023-03-26T12:32:45.853Z,2.67
2023-03-26T12:35:32.459Z,2.50
2023-03-26T12:38:19.199Z,2.42
2023-03-26T12:40:57.269Z,1.73
2023-03-26T12:44:48.826Z,1.73
2023-03-26T12:48:00.250Z,1.50
2023-03-26T12:49:19.533Z,1.33
2023-03-26T12:52:00.239Z,1.45
2023-03-26T12:54:48.422Z,1.65
2023-03-26T12:57:27.377Z,1.77
2023-03-26T13:00:12.552Z,1.50
2023-03-26T13:03:05.363Z,1.88
2023-03-26T13:05:55.846Z,1.65
2023-03-26T13:08:35.467Z,1.50
2023-03-26T13:11:17.205Z,2.08
2023-03-26T13:13:51.513Z,1.75
2023-03-26T13:16:37.455Z,1.75
2023-03-26T13:19:14.295Z,1.90
2023-03-26T13:21:57.206Z,1.42
2023-03-26T13:24:55.968Z,1.50
2023-03-26T13:27:36.320Z,1.40
2023-03-26T13:30:21.812Z,1.67
2023-03-26T13:33:18.182Z,1.65
2023-03-26T13:35:50.848Z,1.70
2023-03-26T13:38:25.168Z,1.55
2023-03-26T13:41:07.849Z,1.60
2023-03-26T13:43:50.183Z,2.17
2023-03-26T13:46:29.923Z,1.95
2023-03-26T13:49:03.276Z,2.05
2023-03-26T13:51:42.617Z,1.67
2023-03-26T13:54:24.211Z,1.75
2023-03-26T13:56:56.173Z,1.67
2023-03-26T13:59:34.155Z,2.05
2023-03-26T14:02:03.847Z,1.80
2023-03-26T14:04:45.159Z,1.50
2023-03-26T14:07:32.657Z,1.60
2023-03-26T14:10:09.218Z,1.70
2023-03-26T14:12:55.297Z,1.80
2023-03-26T14:15:48.197Z,1.60
2023-03-26T14:18:29.437Z,1.67
2023-03-26T14:21:12.172Z,2.05
2023-03-26T14:23:51.357Z,1.63
2023-03-26T14:26:49.157Z,1.58
2023-03-26T14:29:23.864Z,1.40
2023-03-26T14:32:03.212Z,1.70
2023-03-26T14:34:49.825Z,1.15
2023-03-26T14:37:41.213Z,1.50
2023-03-26T14:40:28.767Z,1.50
2023-03-26T14:43:21.204Z,1.50
2023-03-26T14:46:07.638Z,1.50
2023-03-26T14:49:00.187Z,1.70
2023-03-26T14:51:46.460Z,1.50
2023-03-26T14:54:41.007Z,1.23
2023-03-26T14:57:08.215Z,1.33
2023-03-26T14:59:42.163Z,1.60
2023-03-26T15:02:24.572Z,1.25
2023-03-26T15:04:58.443Z,2.58
2023-03-26T15:07:41.977Z,5.00
2023-03-26T15:10:29.214Z,3.67
2023-03-26T15:13:03.915Z,2.30
2023-03-26T15:15:37.230Z,1.27
2023-03-26T15:18:23.180Z,1.00
2023-03-26T15:20:57.365Z,1.27
2023-03-26T15:23:49.345Z,1.55
2023-03-26T15:26:37.191Z,1.13
2023-03-26T15:29:11.626Z,1.50
2023-03-26T15:32:08.360Z,1.02
2023-03-26T15:34:45.075Z,1.33
2023-03-26T15:37:24.218Z,1.35
2023-03-26T15:40:12.146Z,1.33
2023-03-26T15:43:04.246Z,1.08
2023-03-26T15:45:42.144Z,1.48
2023-03-26T15:48:19.239Z,1.67
2023-03-26T15:50:54.034Z,2.00
2023-03-26T15:53:43.354Z,1.20
2023-03-26T15:56:33.014Z,1.90
2023-03-26T15:59:26.318Z,1.65
2023-03-26T16:02:03.947Z,1.77
2023-03-26T16:04:54.271Z,2.45
2023-03-26T16:07:41.257Z,2.00
2023-03-26T16:10:21.339Z,2.30
2023-03-26T16:13:13.256Z,2.05
2023-03-26T16:15:40.893Z,2.28
2023-03-26T16:18:26.273Z,1.75
2023-03-26T16:20:55.272Z,1.70
2023-03-26T19:25:28.310Z,2.20
2023-03-26T19:28:15.239Z,2.10
2023-03-26T19:30:52.354Z,2.10
2023-03-26T19:33:27.228Z,2.50
2023-03-26T19:36:00.892Z,2.10
2023-03-26T19:38:35.228Z,2.53
2023-03-26T19:41:02.392Z,2.35
2023-03-26T19:43:36.241Z,2.40
2023-03-26T19:46:03.469Z,2.35
2023-03-26T19:48:46.565Z,2.25
2023-03-26T19:51:20.174Z,2.10
2023-03-26T19:54:00.231Z,2.53
2023-03-26T19:56:28.747Z,2.75
2023-03-26T19:59:05.282Z,2.20
2023-03-26T20:01:32.600Z,2.40
2023-03-26T20:04:11.272Z,2.40
2023-03-26T20:06:43.649Z,2.25
2023-03-26T20:09:18.247Z,2.65
2023-03-26T20:11:53.375Z,2.83
2023-03-26T20:14:32.239Z,2.97
2023-03-26T20:17:06.305Z,2.38
2023-03-26T20:19:33.690Z,2.45
2023-03-26T20:24:35.337Z,2.80
2023-03-26T20:27:15.438Z,2.40
2023-03-26T20:29:43.025Z,2.42
2023-03-26T20:32:30.508Z,2.03
2023-03-26T20:34:57.775Z,2.50
2023-03-26T20:37:24.929Z,2.40
2023-03-26T20:40:03.306Z,2.70
2023-03-26T20:42:30.840Z,2.30
2023-03-26T20:45:04.314Z,2.40
2023-03-26T20:47:31.616Z,2.30
2023-03-26T20:49:58.697Z,2.42
2023-03-26T20:52:35.431Z,2.10
2023-03-26T20:55:03.346Z,2.28
2023-03-26T20:57:39.457Z,2.45
2023-03-26T21:00:16.625Z,2.50
2023-03-26T21:02:50.390Z,1.90
2023-03-26T21:05:30.242Z,2.30
2023-03-26T21:08:05.323Z,2.20
2023-03-26T21:10:41.245Z,2.35
2023-03-26T21:13:11.925Z,2.30
2023-03-26T21:15:46.237Z,2.28
2023-03-26T21:18:13.642Z,2.00
2023-03-26T21:23:20.633Z,2.13
2023-03-26T21:25:59.265Z,2.25
2023-03-26T21:28:42.380Z,2.10
2023-03-26T21:31:27.232Z,1.95
2023-03-26T21:33:57.023Z,1.92
2023-03-26T21:36:31.462Z,2.20
2023-03-26T21:39:06.496Z,2.10
2023-03-26T21:41:48.330Z,2.20
2023-03-26T21:44:33.090Z,1.92
2023-03-26T21:47:15.391Z,2.60
2023-03-26T21:49:42.870Z,2.20
2023-03-26T21:54:44.386Z,2.30
2023-03-26T21:57:26.996Z,2.33
2023-03-26T22:00:33.560Z,2.25
2023-03-26T22:03:14.901Z,2.20
2023-03-26T22:05:53.447Z,2.30
2023-03-26T22:08:27.194Z,2.38
2023-03-26T22:11:01.386Z,2.60
2023-03-26T22:13:35.334Z,2.63
2023-03-26T22:16:02.883Z,1.90
2023-03-26T22:18:36.254Z,2.72
2023-03-26T22:21:04.726Z,2.50
2023-03-26T22:23:42.241Z,2.20
2023-03-26T22:26:29.396Z,2.42
2023-03-26T22:29:03.271Z,2.15
2023-03-26T22:31:30.563Z,2.55
2023-03-26T22:33:58.332Z,2.38
2023-03-26T22:36:32.413Z,2.20
2023-03-26T22:38:59.621Z,2.03
2023-03-26T22:41:33.328Z,2.00
2023-03-26T22:44:09.448Z,2.05
2023-03-26T22:46:55.460Z,2.08
2023-03-26T22:49:22.718Z,2.03
2023-03-26T22:51:50.403Z,2.22
2023-03-26T22:54:24.706Z,1.95
2023-03-26T22:56:52.396Z,2.28
2023-03-26T22:59:26.376Z,1.85
2023-03-26T23:01:54.177Z,1.90
2023-03-26T23:04:33.579Z,2.17
2023-03-26T23:07:00.913Z,1.77
2023-03-26T23:09:28.251Z,2.40
2023-03-26T23:12:02.723Z,2.00
2023-03-26T23:14:32.316Z,2.00
2023-03-26T23:17:06.518Z,2.15
2023-03-26T23:19:34.618Z,2.15
2023-03-26T23:22:01.914Z,2.13
2023-03-26T23:24:36.368Z,2.08
2023-03-26T23:27:10.775Z,2.05
2023-03-26T23:29:44.493Z,2.03
2023-03-26T23:32:24.315Z,2.25
2023-03-26T23:34:59.547Z,1.95
2023-03-26T23:37:29.394Z,2.38
2023-03-26T23:39:56.647Z,1.83
2023-03-26T23:42:30.374Z,2.13
2023-03-26T23:44:58.064Z,2.00
2023-03-26T23:47:31.396Z,2.10
2023-03-26T23:49:58.656Z,2.17
2023-03-26T23:52:25.806Z,2.00
2023-03-26T23:54:59.418Z,2.10
2023-03-26T23:57:27.314Z,2.42
